Time;durP1;ratioP1;P1;durP2;ratioP2;P2;SDS_P1;SDS_P2;PMS_P1;PMS_P2;Temp;Humidity;BMP_temperature;BMP_pressure;BME280_temperature;BME280_humidity;BME280_pressure;Samples;Min_cycle;Max_cycle;Signal;HPM_P1;HPM_P2
2023/08/13 00:01:44;;;;;;;2.28;0.30;;;16.60;99.90;;;;;;4943957;28;20054;-82
2023/08/13 00:04:10;;;;;;;1.98;0.30;;;16.60;99.90;;;;;;4948942;28;20042;-81
2023/08/13 00:06:35;;;;;;;2.53;0.38;;;16.50;99.90;;;;;;4967885;28;20033;-84
2023/08/13 00:09:02;;;;;;;2.13;0.50;;;16.50;99.90;;;;;;4959074;28;20106;-80
2023/08/13 00:11:27;;;;;;;1.80;0.40;;;16.50;99.90;;;;;;4947380;28;20335;-84
2023/08/13 00:13:53;;;;;;;2.20;0.40;;;16.40;99.90;;;;;;4966615;28;20070;-82
2023/08/13 00:16:19;;;;;;;3.45;0.30;;;16.40;99.90;;;;;;4959860;28;20034;-82
2023/08/13 00:18:45;;;;;;;1.63;0.40;;;16.40;99.90;;;;;;4958335;28;20043;-84
2023/08/13 00:21:11;;;;;;;1.25;0.40;;;16.40;99.90;;;;;;4963852;28;20027;-82
2023/08/13 00:23:37;;;;;;;1.90;0.32;;;16.30;99.90;;;;;;4954003;28;20484;-82
2023/08/13 00:26:03;;;;;;;2.05;0.40;;;16.30;99.90;;;;;;4960870;28;20058;-83
2023/08/13 00:28:30;;;;;;;4.57;0.50;;;16.20;99.90;;;;;;4963759;28;20073;-82
2023/08/13 00:30:55;;;;;;;2.15;0.40;;;16.20;99.90;;;;;;4954528;28;20028;-82
2023/08/13 00:33:21;;;;;;;1.50;0.30;;;16.20;99.90;;;;;;4943643;28;20703;-81
2023/08/13 00:35:49;;;;;;;3.20;0.30;;;16.10;99.90;;;;;;4960854;28;20027;-84
2023/08/13 00:38:16;;;;;;;1.63;0.30;;;16.10;99.90;;;;;;4944247;28;20031;-81
2023/08/13 00:40:41;;;;;;;1.98;0.30;;;16.10;99.90;;;;;;4949424;28;20023;-85
2023/08/13 00:43:08;;;;;;;3.45;0.40;;;16.10;99.90;;;;;;4949395;28;20399;-82
2023/08/13 00:45:35;;;;;;;2.75;0.30;;;16.00;99.90;;;;;;4944927;28;20202;-85
2023/08/13 00:48:02;;;;;;;1.85;0.30;;;16.00;99.90;;;;;;4959740;28;20031;-82
2023/08/13 00:50:28;;;;;;;3.17;0.32;;;15.90;99.90;;;;;;4947646;28;20033;-83
2023/08/13 00:52:54;;;;;;;1.33;0.28;;;16.00;99.90;;;;;;4946415;28;20124;-84
2023/08/13 00:55:20;;;;;;;4.18;0.50;;;15.90;99.90;;;;;;4958155;28;20031;-84
2023/08/13 00:57:46;;;;;;;3.35;0.28;;;15.90;99.90;;;;;;4963908;28;20173;-82
2023/08/13 01:00:13;;;;;;;2.15;0.22;;;15.90;99.90;;;;;;4948095;28;20513;-81
2023/08/13 01:02:38;;;;;;;1.27;0.30;;;15.90;99.90;;;;;;4964832;28;20031;-84
2023/08/13 01:05:07;;;;;;;3.25;0.30;;;15.80;99.90;;;;;;4961686;28;20038;-81
2023/08/13 01:07:50;;;;;;;2.80;0.40;;;15.80;99.90;;;;;;4962771;28;20037;-84
2023/08/13 01:10:34;;;;;;;2.97;0.30;;;15.80;99.90;;;;;;4963419;28;20196;-81
2023/08/13 01:13:10;;;;;;;1.92;0.30;;;15.80;99.90;;;;;;4956412;28;20030;-81
2023/08/13 01:15:41;;;;;;;2.50;0.30;;;15.80;99.90;;;;;;4971710;28;20081;-82
2023/08/13 01:18:07;;;;;;;2.22;0.40;;;15.70;99.90;;;;;;4949833;28;20201;-81
2023/08/13 01:20:38;;;;;;;2.38;0.40;;;15.70;99.90;;;;;;4945999;28;20053;-82
2023/08/13 01:23:04;;;;;;;1.92;0.40;;;15.70;99.90;;;;;;4959092;28;20081;-81
2023/08/13 01:25:31;;;;;;;1.17;0.30;;;15.70;99.90;;;;;;4960550;28;20037;-82
2023/08/13 01:28:03;;;;;;;2.40;0.40;;;15.70;99.90;;;;;;4957373;28;20098;-83
2023/08/13 01:30:44;;;;;;;2.35;0.40;;;15.70;99.90;;;;;;4956683;28;20045;-82
2023/08/13 01:33:26;;;;;;;1.67;0.30;;;15.70;99.90;;;;;;4961964;28;20043;-82
2023/08/13 01:36:02;;;;;;;2.22;0.30;;;15.60;99.90;;;;;;4963069;28;20019;-81
2023/08/13 01:38:30;;;;;;;2.53;0.38;;;15.70;99.90;;;;;;4944094;28;20034;-81
2023/08/13 01:41:03;;;;;;;1.35;0.35;;;15.60;99.90;;;;;;4948500;28;20580;-82
2023/08/13 01:43:29;;;;;;;1.92;0.32;;;15.60;99.90;;;;;;4962238;28;20066;-81
2023/08/13 01:45:55;;;;;;;2.00;0.35;;;15.60;99.90;;;;;;4942484;28;20051;-84
2023/08/13 01:48:21;;;;;;;4.80;0.40;;;15.60;99.90;;;;;;4941018;28;20027;-83
2023/08/13 01:50:47;;;;;;;2.20;0.40;;;15.50;99.90;;;;;;4959955;28;20080;-81
2023/08/13 01:53:13;;;;;;;2.15;0.38;;;15.50;99.90;;;;;;4942720;28;20488;-82
2023/08/13 01:55:40;;;;;;;2.30;0.32;;;15.50;99.90;;;;;;4953902;28;20119;-83
2023/08/13 01:58:07;;;;;;;1.83;0.32;;;15.50;99.90;;;;;;4958326;28;20123;-82
2023/08/13 02:00:33;;;;;;;2.88;0.30;;;15.50;99.90;;;;;;4944879;28;20309;-82
2023/08/13 02:02:59;;;;;;;2.10;0.30;;;15.50;99.90;;;;;;4967537;28;20282;-83
2023/08/13 02:05:25;;;;;;;2.33;0.32;;;15.40;99.90;;;;;;4967296;28;20042;-84
2023/08/13 02:07:50;;;;;;;2.42;0.32;;;15.40;99.90;;;;;;4966531;28;20027;-82
2023/08/13 02:10:16;;;;;;;2.25;0.35;;;15.40;99.90;;;;;;4959175;28;20031;-83
2023/08/13 02:12:42;;;;;;;1.92;0.30;;;15.40;99.90;;;;;;4960002;28;20030;-84
2023/08/13 02:15:08;;;;;;;1.77;0.30;;;15.30;99.90;;;;;;4963667;28;20400;-84
2023/08/13 02:17:34;;;;;;;2.42;0.30;;;15.30;99.90;;;;;;4966803;28;20027;-82
2023/08/13 02:20:00;;;;;;;1.80;0.30;;;15.30;99.90;;;;;;4961880;28;20026;-84
2023/08/13 02:22:25;;;;;;;2.42;0.40;;;15.30;99.90;;;;;;4964504;28;20369;-83
2023/08/13 02:24:52;;;;;;;1.83;0.30;;;15.30;99.90;;;;;;4963005;28;20484;-81
2023/08/13 02:27:17;;;;;;;2.95;0.30;;;15.30;99.90;;;;;;4947716;28;20037;-82
2023/08/13 02:29:43;;;;;;;3.20;0.30;;;15.30;99.90;;;;;;4962520;28;20023;-82
2023/08/13 02:32:09;;;;;;;2.03;0.28;;;15.40;99.90;;;;;;4949673;28;20400;-81
2023/08/13 02:34:47;;;;;;;1.15;0.30;;;15.30;99.90;;;;;;4965849;28;20066;-82
2023/08/13 02:37:12;;;;;;;3.50;0.35;;;15.20;99.90;;;;;;4945350;28;20035;-82
2023/08/13 02:39:38;;;;;;;2.45;0.28;;;15.20;99.90;;;;;;4946602;28;20031;-82
2023/08/13 02:42:04;;;;;;;2.30;0.40;;;15.30;99.90;;;;;;4967232;28;20383;-82
2023/08/13 02:44:30;;;;;;;5.18;0.40;;;15.20;99.90;;;;;;4963433;28;20093;-81
2023/08/13 02:46:57;;;;;;;2.20;0.30;;;15.20;99.90;;;;;;4946886;28;20069;-81
2023/08/13 02:49:23;;;;;;;2.17;0.30;;;15.20;99.90;;;;;;4962002;28;20042;-82
2023/08/13 02:51:49;;;;;;;2.47;0.30;;;15.20;99.90;;;;;;4948447;28;20384;-82
2023/08/13 02:54:15;;;;;;;1.42;0.28;;;15.20;99.90;;;;;;4946007;28;20038;-81
2023/08/13 02:56:41;;;;;;;1.42;0.30;;;15.10;99.90;;;;;;4965010;28;20066;-82
2023/08/13 02:59:07;;;;;;;1.35;0.30;;;15.10;99.90;;;;;;4950430;28;20039;-83
2023/08/13 03:01:33;;;;;;;1.58;0.30;;;15.20;99.90;;;;;;4962866;28;20392;-82
2023/08/13 03:04:02;;;;;;;0.90;0.30;;;15.20;99.90;;;;;;4958755;28;20106;-82
2023/08/13 03:06:29;;;;;;;1.33;0.32;;;15.10;99.90;;;;;;4962819;28;20098;-82
2023/08/13 03:08:54;;;;;;;1.17;0.30;;;15.10;99.90;;;;;;4964762;28;20545;-82
2023/08/13 03:11:21;;;;;;;3.58;0.30;;;15.10;99.90;;;;;;4947197;28;20042;-82
2023/08/13 03:13:47;;;;;;;3.03;0.32;;;15.10;99.90;;;;;;4945373;28;20156;-84
2023/08/13 03:16:13;;;;;;;1.83;0.30;;;15.10;99.90;;;;;;4961605;28;20039;-84
2023/08/13 03:18:40;;;;;;;3.08;0.40;;;15.10;99.90;;;;;;4963281;28;20693;-83
2023/08/13 03:21:09;;;;;;;2.63;0.30;;;15.00;99.90;;;;;;4944675;28;20019;-81
2023/08/13 03:23:35;;;;;;;1.15;0.30;;;15.00;99.90;;;;;;4946963;28;20034;-82
2023/08/13 03:26:01;;;;;;;2.42;0.30;;;15.00;99.90;;;;;;4944374;28;20093;-82
2023/08/13 03:28:28;;;;;;;0.88;0.20;;;15.00;99.90;;;;;;4943483;28;20682;-83
2023/08/13 03:31:01;;;;;;;0.88;0.20;;;15.00;99.90;;;;;;4953059;28;20075;-81
2023/08/13 03:33:36;;;;;;;2.30;0.30;;;14.90;99.90;;;;;;4963667;28;20047;-81
2023/08/13 03:36:01;;;;;;;2.55;0.30;;;14.90;99.90;;;;;;4963888;28;20771;-82
2023/08/13 03:38:27;;;;;;;1.40;0.30;;;14.90;99.90;;;;;;4943214;28;20035;-82
2023/08/13 03:40:55;;;;;;;2.22;0.20;;;14.90;99.90;;;;;;4968771;28;20084;-81
2023/08/13 03:43:21;;;;;;;2.05;0.30;;;14.90;99.90;;;;;;4960708;28;20498;-82
2023/08/13 03:45:46;;;;;;;2.05;0.30;;;14.90;99.90;;;;;;4965589;28;20038;-82
2023/08/13 03:48:14;;;;;;;2.08;0.40;;;14.90;99.90;;;;;;4945703;28;20397;-81
2023/08/13 03:50:43;;;;;;;1.92;0.28;;;14.90;99.90;;;;;;4951063;28;20019;-82
2023/08/13 03:53:11;;;;;;;1.73;0.30;;;14.80;99.90;;;;;;4942700;28;20031;-82
2023/08/13 03:55:37;;;;;;;3.95;0.40;;;14.80;99.90;;;;;;4945223;28;20023;-83
2023/08/13 03:58:05;;;;;;;2.85;0.35;;;14.80;99.90;;;;;;4951682;28;20035;-82
2023/08/13 04:00:31;;;;;;;1.92;0.30;;;14.80;99.90;;;;;;4961754;28;20018;-82
2023/08/13 04:02:57;;;;;;;1.55;0.30;;;14.80;99.90;;;;;;4963882;28;20514;-81
2023/08/13 04:05:23;;;;;;;2.03;0.35;;;14.80;99.90;;;;;;4949988;28;20034;-82
2023/08/13 04:07:49;;;;;;;2.80;0.28;;;14.80;99.90;;;;;;4946368;28;20607;-82
2023/08/13 04:10:14;;;;;;;3.47;0.30;;;14.70;99.90;;;;;;4961021;28;20475;-81
2023/08/13 04:12:40;;;;;;;1.15;0.20;;;14.80;99.90;;;;;;4944887;28;20054;-81
2023/08/13 04:15:07;;;;;;;2.35;0.30;;;14.80;99.90;;;;;;4942190;28;20397;-82
2023/08/13 04:17:35;;;;;;;3.58;0.30;;;14.80;99.90;;;;;;4947176;28;20150;-82
2023/08/13 04:20:03;;;;;;;2.78;0.30;;;14.80;99.90;;;;;;4963261;28;20035;-82
2023/08/13 04:22:29;;;;;;;3.38;0.30;;;14.80;99.90;;;;;;4957012;28;20052;-83
2023/08/13 04:24:55;;;;;;;2.70;0.30;;;14.80;99.90;;;;;;4966260;28;20066;-83
2023/08/13 04:27:23;;;;;;;1.77;0.30;;;14.80;99.90;;;;;;4958471;28;20029;-82
2023/08/13 04:29:50;;;;;;;1.17;0.30;;;14.80;99.90;;;;;;4959258;28;20031;-82
2023/08/13 04:32:15;;;;;;;2.33;0.30;;;14.80;99.90;;;;;;4946997;28;20030;-85
2023/08/13 04:34:41;;;;;;;1.38;0.20;;;14.80;99.90;;;;;;4959525;28;20051;-81
2023/08/13 04:37:07;;;;;;;1.60;0.30;;;14.80;99.90;;;;;;4963360;28;20451;-82
2023/08/13 04:39:35;;;;;;;1.33;0.30;;;14.80;99.90;;;;;;4961655;28;20510;-82
2023/08/13 04:42:01;;;;;;;1.70;0.30;;;14.80;99.90;;;;;;4951147;28;20065;-85
2023/08/13 04:44:28;;;;;;;1.67;0.30;;;14.90;99.90;;;;;;4941609;28;20066;-82
2023/08/13 04:46:54;;;;;;;1.38;0.30;;;14.90;99.90;;;;;;4962680;28;20031;-81
2023/08/13 04:49:20;;;;;;;2.15;0.30;;;15.00;99.90;;;;;;4942246;28;20103;-81
2023/08/13 04:51:45;;;;;;;0.88;0.30;;;15.00;99.90;;;;;;4948140;28;20055;-82
2023/08/13 04:54:11;;;;;;;1.83;0.30;;;15.10;99.90;;;;;;4961520;28;20063;-82
2023/08/13 04:56:37;;;;;;;2.00;0.32;;;15.20;99.90;;;;;;4944503;28;20029;-82
2023/08/13 04:59:03;;;;;;;4.28;0.52;;;15.20;99.90;;;;;;4943467;28;20039;-82
2023/08/13 05:01:30;;;;;;;2.90;0.40;;;15.20;99.90;;;;;;4942415;28;20361;-80
2023/08/13 05:03:58;;;;;;;2.35;0.30;;;15.30;99.90;;;;;;4944143;28;20023;-83
2023/08/13 05:06:23;;;;;;;2.47;0.40;;;15.40;99.90;;;;;;4948111;28;20058;-81
2023/08/13 05:08:51;;;;;;;2.03;0.30;;;15.40;99.90;;;;;;4955499;28;20027;-81
2023/08/13 05:11:18;;;;;;;1.10;0.32;;;15.40;99.90;;;;;;4961583;28;20027;-82
2023/08/13 05:13:44;;;;;;;2.53;0.40;;;15.50;99.90;;;;;;4960914;28;20542;-81
2023/08/13 05:16:10;;;;;;;1.15;0.30;;;15.50;99.90;;;;;;4939204;28;20141;-83
2023/08/13 05:18:37;;;;;;;2.90;0.30;;;15.50;99.90;;;;;;4949319;28;20113;-83
2023/08/13 05:21:03;;;;;;;3.08;0.30;;;15.60;99.90;;;;;;4943525;28;20026;-84
2023/08/13 05:23:29;;;;;;;2.10;0.30;;;15.60;99.90;;;;;;4961285;28;20090;-81
2023/08/13 05:25:55;;;;;;;2.40;0.43;;;15.70;99.90;;;;;;4962593;28;20065;-82
2023/08/13 05:28:21;;;;;;;3.15;0.30;;;15.60;99.90;;;;;;4942199;28;20537;-81
2023/08/13 05:30:46;;;;;;;2.65;0.30;;;15.70;99.90;;;;;;4953598;28;20150;-82
2023/08/13 05:33:12;;;;;;;1.35;0.22;;;15.70;99.90;;;;;;4941023;28;20035;-82
2023/08/13 05:35:38;;;;;;;2.08;0.30;;;15.80;99.90;;;;;;4958739;28;20023;-82
2023/08/13 05:38:05;;;;;;;1.23;0.30;;;15.90;99.90;;;;;;4947065;28;20046;-83
2023/08/13 05:40:31;;;;;;;2.80;0.30;;;15.90;99.90;;;;;;4963051;28;20027;-81
2023/08/13 05:42:57;;;;;;;2.63;0.30;;;16.00;99.90;;;;;;4947566;28;20038;-82
2023/08/13 05:45:22;;;;;;;1.15;0.20;;;16.00;99.90;;;;;;4960158;28;20085;-82
2023/08/13 05:47:48;;;;;;;1.20;0.20;;;16.10;99.90;;;;;;4950162;28;20058;-82
2023/08/13 05:50:14;;;;;;;2.63;0.43;;;16.20;99.90;;;;;;4967310;28;20030;-82
2023/08/13 05:52:40;;;;;;;1.60;0.35;;;16.20;99.90;;;;;;4966817;28;20033;-81
2023/08/13 05:55:06;;;;;;;3.20;0.40;;;16.20;99.90;;;;;;4961241;28;20454;-82
2023/08/13 05:57:32;;;;;;;2.40;0.30;;;16.20;99.90;;;;;;4963333;28;20034;-82
2023/08/13 05:59:58;;;;;;;1.13;0.20;;;16.30;99.90;;;;;;4964176;28;20058;-81
2023/08/13 06:02:24;;;;;;;2.67;0.30;;;16.30;99.90;;;;;;4945491;29;20038;-82
2023/08/13 06:04:50;;;;;;;2.58;0.20;;;16.30;99.90;;;;;;4953263;28;20031;-82
2023/08/13 06:07:15;;;;;;;1.08;0.30;;;16.40;99.90;;;;;;4961893;28;20086;-82
2023/08/13 06:09:41;;;;;;;2.58;0.50;;;16.50;99.90;;;;;;4946965;28;20035;-82
2023/08/13 06:12:07;;;;;;;1.30;0.30;;;16.60;99.90;;;;;;4962423;28;20122;-82
2023/08/13 06:14:33;;;;;;;2.38;0.35;;;16.60;99.90;;;;;;4963181;28;20031;-82
2023/08/13 06:16:59;;;;;;;1.83;0.35;;;16.70;99.90;;;;;;4961174;28;20105;-82
2023/08/13 06:19:25;;;;;;;3.35;0.73;;;16.80;99.90;;;;;;4965814;28;20039;-81
2023/08/13 06:21:50;;;;;;;1.63;0.38;;;17.00;99.90;;;;;;4945521;28;20050;-81
2023/08/13 06:24:16;;;;;;;5.53;0.60;;;17.10;99.90;;;;;;4957090;28;20034;-83
2023/08/13 06:26:42;;;;;;;5.68;0.70;;;17.10;99.90;;;;;;4962678;28;20089;-83
2023/08/13 06:29:08;;;;;;;1.88;0.38;;;17.20;99.90;;;;;;4960534;28;20038;-82
2023/08/13 06:31:35;;;;;;;2.67;0.40;;;17.30;99.90;;;;;;4945097;28;20411;-80
2023/08/13 06:34:01;;;;;;;5.50;0.70;;;17.40;99.90;;;;;;4962368;28;20063;-82
2023/08/13 06:36:27;;;;;;;4.63;0.68;;;17.60;99.90;;;;;;4951423;28;20026;-82
2023/08/13 06:38:52;;;;;;;3.10;0.50;;;17.60;99.90;;;;;;4958558;28;20035;-83
2023/08/13 06:41:18;;;;;;;1.92;0.50;;;17.90;99.90;;;;;;4945997;28;20019;-82
2023/08/13 06:43:44;;;;;;;3.45;0.50;;;18.10;99.90;;;;;;4958789;28;20555;-82
2023/08/13 06:46:09;;;;;;;3.60;0.43;;;18.40;99.90;;;;;;4946253;28;20038;-82
2023/08/13 06:48:38;;;;;;;5.32;0.55;;;18.60;99.90;;;;;;4944035;28;20035;-81
2023/08/13 06:51:04;;;;;;;3.17;0.40;;;18.70;99.90;;;;;;4962884;28;20034;-82
2023/08/13 06:53:29;;;;;;;1.52;0.40;;;18.90;99.90;;;;;;4964423;28;20451;-81
2023/08/13 06:55:59;;;;;;;2.65;0.45;;;19.10;99.90;;;;;;4959941;28;20027;-82
2023/08/13 06:58:25;;;;;;;2.22;0.40;;;19.00;99.90;;;;;;4947143;28;20082;-82
2023/08/13 07:00:51;;;;;;;2.60;0.40;;;19.30;99.90;;;;;;4947951;28;20031;-81
2023/08/13 07:03:17;;;;;;;2.10;0.30;;;19.50;99.90;;;;;;4958509;28;20069;-82
2023/08/13 07:05:42;;;;;;;1.95;0.40;;;19.70;99.90;;;;;;4945412;28;20115;-82
2023/08/13 07:08:11;;;;;;;2.67;0.40;;;19.80;99.90;;;;;;4963298;28;20027;-83
2023/08/13 07:10:39;;;;;;;3.50;0.40;;;19.90;99.90;;;;;;4949370;28;20061;-82
2023/08/13 07:13:05;;;;;;;4.82;0.50;;;20.00;99.90;;;;;;4966493;28;20283;-82
2023/08/13 07:15:31;;;;;;;5.88;0.50;;;20.10;99.90;;;;;;4960549;28;20491;-82
2023/08/13 07:17:56;;;;;;;1.90;0.40;;;20.30;99.90;;;;;;4962678;28;20039;-85
2023/08/13 07:20:22;;;;;;;3.20;0.50;;;20.00;99.90;;;;;;4955798;28;20074;-82
2023/08/13 07:22:48;;;;;;;2.53;0.30;;;19.80;99.90;;;;;;4957817;28;20015;-83
2023/08/13 07:25:14;;;;;;;1.75;0.30;;;19.90;99.90;;;;;;4963015;28;20035;-82
2023/08/13 07:27:41;;;;;;;2.53;0.30;;;19.70;99.90;;;;;;4940889;28;20472;-83
2023/08/13 07:30:09;;;;;;;4.63;0.50;;;19.60;99.90;;;;;;4947133;28;20031;-82
2023/08/13 07:32:40;;;;;;;4.30;0.40;;;19.80;99.90;;;;;;4967231;28;20400;-82
2023/08/13 07:35:06;;;;;;;2.75;0.45;;;20.00;99.90;;;;;;4943026;28;20179;-82
2023/08/13 07:37:33;;;;;;;2.67;0.32;;;20.20;99.90;;;;;;4948975;28;20025;-82
2023/08/13 07:39:59;;;;;;;3.03;0.40;;;20.50;99.90;;;;;;4963692;28;20471;-82
2023/08/13 07:42:25;;;;;;;4.38;0.30;;;20.80;99.90;;;;;;4946247;28;20069;-82
2023/08/13 07:44:51;;;;;;;2.70;0.20;;;21.20;99.90;;;;;;4960686;28;20062;-83
2023/08/13 07:47:17;;;;;;;3.05;0.30;;;20.90;99.90;;;;;;4944490;28;20106;-82
2023/08/13 07:49:43;;;;;;;2.88;0.40;;;20.80;99.90;;;;;;4942345;28;20039;-82
2023/08/13 07:52:08;;;;;;;4.75;0.60;;;21.20;99.90;;;;;;4957405;28;20031;-81
2023/08/13 07:54:36;;;;;;;2.75;0.40;;;20.90;99.90;;;;;;4952867;28;20027;-82
2023/08/13 07:57:05;;;;;;;2.95;0.40;;;20.80;99.90;;;;;;4944496;28;20105;-83
2023/08/13 07:59:31;;;;;;;2.30;0.30;;;20.70;99.90;;;;;;4942227;28;20043;-82
2023/08/13 08:01:57;;;;;;;2.88;0.40;;;20.90;99.90;;;;;;4962566;28;20027;-81
2023/08/13 08:04:23;;;;;;;2.70;0.30;;;20.80;99.90;;;;;;4964329;28;20369;-84
2023/08/13 08:06:48;;;;;;;1.88;0.30;;;20.60;99.90;;;;;;4960466;28;20031;-83
2023/08/13 08:09:14;;;;;;;2.58;0.30;;;20.40;99.90;;;;;;4946522;28;20037;-82
2023/08/13 08:11:40;;;;;;;1.70;0.30;;;20.60;99.90;;;;;;4947172;28;20038;-81
2023/08/13 08:14:06;;;;;;;1.23;0.30;;;21.20;99.90;;;;;;4955009;28;20038;-82
2023/08/13 08:16:32;;;;;;;4.85;0.40;;;21.80;99.90;;;;;;4962362;28;20046;-83
2023/08/13 08:18:57;;;;;;;2.45;0.32;;;22.00;99.90;;;;;;4962232;28;20419;-82
2023/08/13 08:21:23;;;;;;;4.00;0.40;;;21.90;99.90;;;;;;4963604;28;20046;-82
2023/08/13 08:23:48;;;;;;;8.48;0.45;;;21.30;99.90;;;;;;4945010;28;20035;-81
2023/08/13 08:26:14;;;;;;;3.35;0.30;;;21.80;99.90;;;;;;4962943;28;20027;-82
2023/08/13 08:28:40;;;;;;;5.28;0.47;;;21.80;99.90;;;;;;4963752;28;20471;-83
2023/08/13 08:31:05;;;;;;;2.33;0.30;;;21.00;99.90;;;;;;4942723;28;20471;-82
2023/08/13 08:33:31;;;;;;;3.75;0.30;;;21.40;99.90;;;;;;4942472;28;20407;-82
2023/08/13 08:35:57;;;;;;;5.00;0.50;;;21.60;99.90;;;;;;4944774;28;20473;-81
2023/08/13 08:38:23;;;;;;;5.38;0.40;;;21.00;99.90;;;;;;4955190;28;20038;-82
2023/08/13 08:40:52;;;;;;;6.53;0.50;;;21.20;99.90;;;;;;4957314;28;20057;-85
2023/08/13 08:43:18;;;;;;;5.82;0.52;;;21.30;99.90;;;;;;4950813;28;20562;-82
2023/08/13 08:45:44;;;;;;;4.70;0.40;;;21.30;99.90;;;;;;4962014;28;20083;-82
2023/08/13 08:48:11;;;;;;;3.85;0.50;;;21.30;99.90;;;;;;4948489;28;20039;-82
2023/08/13 08:50:37;;;;;;;5.13;0.45;;;21.00;99.90;;;;;;4957739;28;20018;-81
2023/08/13 08:53:04;;;;;;;6.07;0.40;;;21.10;99.90;;;;;;4959319;28;20118;-82
2023/08/13 08:55:30;;;;;;;3.05;0.40;;;21.80;99.90;;;;;;4943444;28;20031;-82
2023/08/13 08:57:56;;;;;;;6.28;0.50;;;21.30;99.90;;;;;;4962387;28;20031;-81
2023/08/13 09:00:22;;;;;;;6.05;0.30;;;21.40;99.90;;;;;;4945255;28;20181;-82
2023/08/13 09:02:49;;;;;;;5.72;0.63;;;22.00;99.90;;;;;;4946922;28;20110;-83
2023/08/13 09:05:16;;;;;;;4.32;0.38;;;22.20;99.90;;;;;;4940292;28;20042;-84
2023/08/13 09:07:42;;;;;;;3.53;0.30;;;22.80;99.90;;;;;;4961898;28;20169;-82
2023/08/13 09:10:09;;;;;;;3.83;0.30;;;23.10;99.90;;;;;;4954243;28;20038;-82
2023/08/13 09:12:36;;;;;;;1.77;0.30;;;22.80;99.90;;;;;;4959342;28;20038;-85
2023/08/13 09:15:09;;;;;;;2.20;0.30;;;23.30;99.90;;;;;;4960298;28;20084;-82
2023/08/13 09:17:35;;;;;;;3.42;0.38;;;23.30;99.90;;;;;;4959488;28;20143;-82
2023/08/13 09:20:18;;;;;;;2.63;0.28;;;23.30;99.90;;;;;;4943053;28;20126;-83
2023/08/13 09:22:48;;;;;;;2.25;0.32;;;23.50;99.90;;;;;;4948183;28;20035;-82
2023/08/13 09:25:15;;;;;;;2.78;0.30;;;23.40;99.90;;;;;;4940229;28;20062;-82
2023/08/13 09:27:41;;;;;;;4.20;0.40;;;23.10;99.90;;;;;;4943099;28;20027;-83
2023/08/13 09:30:14;;;;;;;3.03;0.30;;;22.90;99.90;;;;;;4956810;28;20077;-82
2023/08/13 09:32:41;;;;;;;1.95;0.30;;;23.20;99.90;;;;;;4954713;28;20031;-82
2023/08/13 09:35:08;;;;;;;1.80;0.30;;;23.50;99.90;;;;;;4955314;28;20058;-82
2023/08/13 09:37:33;;;;;;;3.85;0.30;;;23.50;99.90;;;;;;4945587;28;20105;-86
2023/08/13 09:39:59;;;;;;;3.08;0.30;;;23.40;99.90;;;;;;4956847;28;20043;-85
2023/08/13 09:42:25;;;;;;;1.35;0.20;;;23.30;99.90;;;;;;4956304;28;20023;-83
2023/08/13 09:44:55;;;;;;;3.08;0.30;;;23.20;99.90;;;;;;4954857;28;20049;-83
2023/08/13 09:47:26;;;;;;;2.85;0.30;;;23.30;99.90;;;;;;4956241;28;20066;-82
2023/08/13 09:49:54;;;;;;;5.80;0.30;;;23.30;99.90;;;;;;4946164;28;20387;-82
2023/08/13 09:52:25;;;;;;;2.77;0.23;;;23.10;99.90;;;;;;4945543;28;20027;-83
2023/08/13 09:55:00;;;;;;;2.53;0.43;;;23.00;99.90;;;;;;4955703;28;20293;-85
2023/08/13 09:57:27;;;;;;;3.35;0.30;;;22.80;99.90;;;;;;4945918;28;20089;-83
2023/08/13 09:59:54;;;;;;;1.77;0.20;;;23.00;99.90;;;;;;4942313;28;20031;-84
2023/08/13 10:02:21;;;;;;;4.18;0.30;;;23.30;99.90;;;;;;4954225;28;20035;-82
2023/08/13 10:04:48;;;;;;;3.15;0.40;;;23.40;99.90;;;;;;4958910;28;20089;-84
2023/08/13 10:07:14;;;;;;;3.03;0.30;;;23.50;99.90;;;;;;4957316;28;20031;-83
2023/08/13 10:09:40;;;;;;;0.93;0.20;;;23.40;99.90;;;;;;4955332;28;20023;-83
2023/08/13 10:12:09;;;;;;;2.58;0.28;;;23.80;99.90;;;;;;4960156;28;20039;-85
2023/08/13 10:14:35;;;;;;;2.60;0.20;;;23.60;99.90;;;;;;4961492;28;20071;-83
2023/08/13 10:17:06;;;;;;;2.03;0.20;;;23.70;99.90;;;;;;4947198;28;20049;-83
2023/08/13 10:19:38;;;;;;;3.13;0.30;;;23.60;99.90;;;;;;4944161;28;20298;-83
2023/08/13 10:22:04;;;;;;;4.53;0.30;;;23.90;99.90;;;;;;4952102;28;20486;-83
2023/08/13 10:24:30;;;;;;;3.22;0.30;;;23.20;99.90;;;;;;4959746;28;20050;-84
2023/08/13 10:26:59;;;;;;;2.28;0.20;;;23.00;99.90;;;;;;4968113;28;20034;-83
2023/08/13 10:29:36;;;;;;;3.58;0.28;;;23.40;99.90;;;;;;4949305;28;20042;-83
2023/08/13 10:32:12;;;;;;;2.33;0.20;;;23.80;99.90;;;;;;4945358;28;20488;-82
2023/08/13 10:34:39;;;;;;;1.17;0.20;;;24.20;99.90;;;;;;4964481;28;20432;-83
2023/08/13 10:37:17;;;;;;;1.45;0.30;;;24.30;99.90;;;;;;4974346;28;20035;-84
2023/08/13 10:39:44;;;;;;;3.28;0.30;;;24.80;99.90;;;;;;4958496;28;20117;-84
2023/08/13 10:42:36;;;;;;;3.10;0.20;;;24.50;99.90;;;;;;4961431;28;20122;-84
2023/08/13 10:45:05;;;;;;;3.10;0.20;;;24.40;99.90;;;;;;4959857;28;20218;-84
2023/08/13 10:47:48;;;;;;;;;;;23.90;99.90;;;;;;4960245;28;20027;-84
2023/08/13 10:50:42;;;;;;;1.27;0.22;;;23.90;99.90;;;;;;4957389;28;20401;-84
2023/08/13 10:53:12;;;;;;;3.78;0.30;;;23.80;99.90;;;;;;4943062;28;20404;-83
2023/08/13 10:56:01;;;;;;;1.65;0.22;;;23.80;99.90;;;;;;4958849;28;20405;-83
2023/08/13 10:58:36;;;;;;;2.20;0.20;;;23.80;99.90;;;;;;4972471;28;20054;-83
2023/08/13 11:01:12;;;;;;;2.70;0.25;;;23.80;99.90;;;;;;4942153;28;20298;-84
2023/08/13 11:03:52;;;;;;;1.58;0.20;;;23.70;99.90;;;;;;4960528;28;20037;-84
2023/08/13 11:06:20;;;;;;;3.22;0.20;;;23.90;99.90;;;;;;4960123;28;20039;-84
2023/08/13 11:08:47;;;;;;;1.77;0.20;;;23.80;99.90;;;;;;4957335;28;20142;-83
2023/08/13 11:11:15;;;;;;;2.30;0.20;;;24.20;99.90;;;;;;4950199;28;20134;-84
2023/08/13 11:13:41;;;;;;;4.03;0.50;;;24.40;99.90;;;;;;4955558;28;20554;-83
2023/08/13 11:16:07;;;;;;;4.20;0.28;;;24.20;99.90;;;;;;4948304;28;20039;-84
2023/08/13 11:18:32;;;;;;;1.63;0.25;;;24.00;99.90;;;;;;4958617;28;20031;-81
2023/08/13 11:20:59;;;;;;;2.20;0.30;;;24.30;99.90;;;;;;4958413;28;20035;-81
2023/08/13 11:23:25;;;;;;;2.55;0.20;;;24.40;99.90;;;;;;4948568;28;20039;-84
2023/08/13 11:25:52;;;;;;;2.85;0.20;;;24.20;99.90;;;;;;4942504;28;20031;-83
2023/08/13 11:28:21;;;;;;;3.53;0.20;;;24.70;99.90;;;;;;4946565;28;20067;-83
2023/08/13 11:30:49;;;;;;;3.60;0.30;;;25.20;99.90;;;;;;4965707;28;20371;-83
2023/08/13 11:33:15;;;;;;;3.13;0.30;;;25.20;99.90;;;;;;4955648;28;20035;-82
2023/08/13 11:35:41;;;;;;;2.17;0.20;;;25.40;99.90;;;;;;4957378;28;20546;-82
2023/08/13 11:38:07;;;;;;;2.25;0.30;;;25.10;99.90;;;;;;4961590;28;20497;-82
2023/08/13 11:40:33;;;;;;;3.13;0.40;;;24.90;99.90;;;;;;4959324;28;20495;-84
2023/08/13 11:43:01;;;;;;;1.05;0.20;;;25.30;99.90;;;;;;4941758;28;20079;-83
2023/08/13 11:45:30;;;;;;;1.40;0.20;;;25.60;99.90;;;;;;4957527;28;20031;-82
2023/08/13 11:48:14;;;;;;;3.20;0.35;;;25.40;99.90;;;;;;4958097;28;20026;-83
2023/08/13 11:50:41;;;;;;;3.67;0.30;;;25.10;99.90;;;;;;4960903;28;20042;-84
2023/08/13 11:53:12;;;;;;;3.03;0.30;;;25.40;99.90;;;;;;4961188;28;20027;-83
2023/08/13 11:55:56;;;;;;;2.70;0.30;;;24.70;99.90;;;;;;4946083;28;20034;-83
2023/08/13 11:58:22;;;;;;;2.17;0.20;;;24.40;99.90;;;;;;4963665;28;20345;-83
2023/08/13 12:00:48;;;;;;;2.83;0.35;;;24.30;99.90;;;;;;4959406;28;20031;-84
2023/08/13 12:03:14;;;;;;;2.08;0.40;;;24.30;99.90;;;;;;4960325;28;20113;-84
2023/08/13 12:05:41;;;;;;;1.58;0.20;;;24.40;99.90;;;;;;4962501;28;20114;-84
2023/08/13 12:08:09;;;;;;;1.80;0.30;;;24.50;99.90;;;;;;4956006;28;20117;-80
2023/08/13 12:10:36;;;;;;;1.48;0.20;;;24.40;99.90;;;;;;4958524;28;20093;-86
2023/08/13 12:13:01;;;;;;;1.02;0.22;;;24.40;99.90;;;;;;4948626;28;20042;-84
2023/08/13 12:15:29;;;;;;;2.78;0.20;;;24.50;99.90;;;;;;4962622;28;20042;-82
2023/08/13 12:17:56;;;;;;;5.32;0.40;;;24.60;99.90;;;;;;4947718;28;20428;-81
2023/08/13 12:20:23;;;;;;;1.25;0.20;;;24.80;99.90;;;;;;4956031;28;20395;-82
2023/08/13 12:22:49;;;;;;;2.33;0.30;;;24.80;99.90;;;;;;4944209;28;20019;-83
2023/08/13 12:25:15;;;;;;;2.58;0.30;;;24.50;99.90;;;;;;4963247;28;20031;-82
2023/08/13 12:27:44;;;;;;;1.52;0.20;;;24.40;99.90;;;;;;4960001;28;20028;-82
2023/08/13 12:30:11;;;;;;;2.80;0.30;;;24.30;99.90;;;;;;4939289;28;20031;-85
2023/08/13 12:32:37;;;;;;;1.52;0.20;;;24.30;99.90;;;;;;4961999;28;20133;-84
2023/08/13 12:35:03;;;;;;;3.78;0.30;;;24.10;99.90;;;;;;4960457;28;20161;-82
2023/08/13 12:37:29;;;;;;;3.40;0.30;;;24.10;99.90;;;;;;4963116;28;20027;-82
2023/08/13 12:39:55;;;;;;;2.65;0.30;;;24.30;99.90;;;;;;4958684;28;20042;-83
2023/08/13 12:42:21;;;;;;;3.67;0.30;;;24.40;99.90;;;;;;4946531;28;20050;-83
2023/08/13 12:44:47;;;;;;;3.28;0.30;;;24.00;99.90;;;;;;4951120;28;20089;-83
2023/08/13 12:47:14;;;;;;;2.03;0.20;;;24.10;99.90;;;;;;4955968;28;20022;-82
2023/08/13 12:49:40;;;;;;;1.73;0.20;;;24.40;99.90;;;;;;4958179;28;20062;-83